sensor_id;sensor_type;location;lat;lon;timestamp;P1;durP1;ratioP1;P2;durP2;ratioP2
59161;SDS011;44942;48.936;8.260;2024-03-08T00:03:15;5.07;;;4.68;;
59161;SDS011;44942;48.936;8.260;2024-03-08T00:08:15;4.70;;;4.30;;
59161;SDS011;44942;48.936;8.260;2024-03-08T00:13:16;4.70;;;4.30;;
59161;SDS011;44942;48.936;8.260;2024-03-08T00:18:17;5.33;;;4.83;;
59161;SDS011;44942;48.936;8.260;2024-03-08T00:23:17;4.80;;;4.40;;
59161;SDS011;44942;48.936;8.260;2024-03-08T00:28:18;5.17;;;4.67;;
59161;SDS011;44942;48.936;8.260;2024-03-08T00:33:18;4.65;;;4.25;;
59161;SDS011;44942;48.936;8.260;2024-03-08T00:38:19;4.53;;;4.13;;
59161;SDS011;44942;48.936;8.260;2024-03-08T00:43:20;5.23;;;4.30;;
59161;SDS011;44942;48.936;8.260;2024-03-08T00:48:20;4.77;;;3.93;;
59161;SDS011;44942;48.936;8.260;2024-03-08T00:53:21;5.13;;;4.30;;
59161;SDS011;44942;48.936;8.260;2024-03-08T00:58:21;4.30;;;3.90;;
59161;SDS011;44942;48.936;8.260;2024-03-08T01:03:23;4.82;;;4.32;;
59161;SDS011;44942;48.936;8.260;2024-03-08T01:08:24;4.37;;;3.97;;
59161;SDS011;44942;48.936;8.260;2024-03-08T01:13:24;4.37;;;3.97;;
59161;SDS011;44942;48.936;8.260;2024-03-08T01:18:26;4.30;;;3.90;;
59161;SDS011;44942;48.936;8.260;2024-03-08T01:23:26;4.53;;;4.07;;
59161;SDS011;44942;48.936;8.260;2024-03-08T01:28:27;4.27;;;3.87;;
59161;SDS011;44942;48.936;8.260;2024-03-08T01:33:28;4.50;;;4.10;;
59161;SDS011;44942;48.936;8.260;2024-03-08T01:38:29;4.53;;;4.13;;
59161;SDS011;44942;48.936;8.260;2024-03-08T01:43:29;4.17;;;3.77;;
59161;SDS011;44942;48.936;8.260;2024-03-08T01:48:30;4.53;;;4.07;;
59161;SDS011;44942;48.936;8.260;2024-03-08T01:53:32;4.35;;;3.85;;
59161;SDS011;44942;48.936;8.260;2024-03-08T01:58:33;4.03;;;3.72;;
59161;SDS011;44942;48.936;8.260;2024-03-08T02:03:33;4.78;;;3.60;;
59161;SDS011;44942;48.936;8.260;2024-03-08T02:08:34;3.83;;;3.53;;
59161;SDS011;44942;48.936;8.260;2024-03-08T02:13:35;4.28;;;3.88;;
59161;SDS011;44942;48.936;8.260;2024-03-08T02:18:36;3.80;;;3.50;;
59161;SDS011;44942;48.936;8.260;2024-03-08T02:23:39;4.50;;;3.58;;
59161;SDS011;44942;48.936;8.260;2024-03-08T02:28:40;4.15;;;3.75;;
59161;SDS011;44942;48.936;8.260;2024-03-08T02:33:43;4.22;;;3.83;;
59161;SDS011;44942;48.936;8.260;2024-03-08T02:38:43;4.10;;;3.80;;
59161;SDS011;44942;48.936;8.260;2024-03-08T02:43:44;5.93;;;5.37;;
59161;SDS011;44942;48.936;8.260;2024-03-08T02:48:45;8.00;;;7.20;;
59161;SDS011;44942;48.936;8.260;2024-03-08T02:58:48;6.72;;;6.13;;
59161;SDS011;44942;48.936;8.260;2024-03-08T03:03:49;7.00;;;6.30;;
59161;SDS011;44942;48.936;8.260;2024-03-08T03:08:50;6.27;;;5.67;;
59161;SDS011;44942;48.936;8.260;2024-03-08T03:13:51;5.90;;;5.30;;
59161;SDS011;44942;48.936;8.260;2024-03-08T03:18:51;5.47;;;4.97;;
59161;SDS011;44942;48.936;8.260;2024-03-08T03:23:52;5.63;;;5.00;;
59161;SDS011;44942;48.936;8.260;2024-03-08T03:28:52;5.30;;;4.80;;
59161;SDS011;44942;48.936;8.260;2024-03-08T03:33:53;5.45;;;4.95;;
59161;SDS011;44942;48.936;8.260;2024-03-08T03:38:54;5.17;;;4.67;;
59161;SDS011;44942;48.936;8.260;2024-03-08T03:44:10;4.80;;;4.32;;
59161;SDS011;44942;48.936;8.260;2024-03-08T03:49:11;5.40;;;4.90;;
59161;SDS011;44942;48.936;8.260;2024-03-08T03:54:12;4.75;;;4.35;;
59161;SDS011;44942;48.936;8.260;2024-03-08T03:59:13;5.10;;;4.60;;
59161;SDS011;44942;48.936;8.260;2024-03-08T04:04:13;4.50;;;4.10;;
59161;SDS011;44942;48.936;8.260;2024-03-08T04:09:14;4.65;;;4.25;;
59161;SDS011;44942;48.936;8.260;2024-03-08T04:14:15;4.33;;;4.00;;
59161;SDS011;44942;48.936;8.260;2024-03-08T04:19:15;4.50;;;4.10;;
59161;SDS011;44942;48.936;8.260;2024-03-08T04:24:16;4.40;;;4.00;;
59161;SDS011;44942;48.936;8.260;2024-03-08T04:29:17;4.18;;;3.78;;
59161;SDS011;44942;48.936;8.260;2024-03-08T04:34:17;4.23;;;3.83;;
59161;SDS011;44942;48.936;8.260;2024-03-08T04:39:18;4.27;;;3.87;;
59161;SDS011;44942;48.936;8.260;2024-03-08T04:44:18;4.00;;;3.63;;
59161;SDS011;44942;48.936;8.260;2024-03-08T04:49:19;4.40;;;4.00;;
59161;SDS011;44942;48.936;8.260;2024-03-08T04:54:21;4.30;;;3.90;;
59161;SDS011;44942;48.936;8.260;2024-03-08T04:59:22;4.40;;;4.00;;
59161;SDS011;44942;48.936;8.260;2024-03-08T05:04:23;4.40;;;4.00;;
59161;SDS011;44942;48.936;8.260;2024-03-08T05:09:24;4.35;;;3.95;;
59161;SDS011;44942;48.936;8.260;2024-03-08T05:14:25;4.17;;;3.77;;
59161;SDS011;44942;48.936;8.260;2024-03-08T05:19:25;4.10;;;3.80;;
59161;SDS011;44942;48.936;8.260;2024-03-08T05:24:26;4.00;;;3.60;;
59161;SDS011;44942;48.936;8.260;2024-03-08T05:29:27;3.90;;;3.60;;
59161;SDS011;44942;48.936;8.260;2024-03-08T05:34:27;5.35;;;3.67;;
59161;SDS011;44942;48.936;8.260;2024-03-08T05:44:29;5.53;;;3.83;;
59161;SDS011;44942;48.936;8.260;2024-03-08T05:49:30;4.65;;;4.15;;
59161;SDS011;44942;48.936;8.260;2024-03-08T05:54:31;4.37;;;3.80;;
59161;SDS011;44942;48.936;8.260;2024-03-08T05:59:33;7.35;;;3.85;;
59161;SDS011;44942;48.936;8.260;2024-03-08T06:04:33;5.38;;;4.10;;
59161;SDS011;44942;48.936;8.260;2024-03-08T06:09:34;5.27;;;3.90;;
59161;SDS011;44942;48.936;8.260;2024-03-08T06:14:34;6.82;;;4.10;;
59161;SDS011;44942;48.936;8.260;2024-03-08T06:19:35;4.73;;;3.60;;
59161;SDS011;44942;48.936;8.260;2024-03-08T06:24:36;6.97;;;3.78;;
59161;SDS011;44942;48.936;8.260;2024-03-08T06:29:38;4.70;;;4.15;;
59161;SDS011;44942;48.936;8.260;2024-03-08T06:34:39;4.28;;;3.45;;
59161;SDS011;44942;48.936;8.260;2024-03-08T06:39:39;4.77;;;3.60;;
59161;SDS011;44942;48.936;8.260;2024-03-08T06:44:40;4.17;;;3.70;;
59161;SDS011;44942;48.936;8.260;2024-03-08T06:49:48;3.75;;;3.45;;
59161;SDS011;44942;48.936;8.260;2024-03-08T06:54:49;4.07;;;3.65;;
59161;SDS011;44942;48.936;8.260;2024-03-08T06:59:52;5.40;;;3.35;;
59161;SDS011;44942;48.936;8.260;2024-03-08T07:04:54;4.35;;;3.58;;
59161;SDS011;44942;48.936;8.260;2024-03-08T07:09:55;7.68;;;4.00;;
59161;SDS011;44942;48.936;8.260;2024-03-08T07:19:57;4.43;;;3.90;;
59161;SDS011;44942;48.936;8.260;2024-03-08T07:24:59;5.32;;;3.80;;
59161;SDS011;44942;48.936;8.260;2024-03-08T07:30:23;4.30;;;3.65;;
59161;SDS011;44942;48.936;8.260;2024-03-08T07:35:44;3.92;;;3.40;;
59161;SDS011;44942;48.936;8.260;2024-03-08T07:40:45;3.55;;;3.20;;
59161;SDS011;44942;48.936;8.260;2024-03-08T07:45:46;3.35;;;3.05;;
59161;SDS011;44942;48.936;8.260;2024-03-08T07:50:47;4.63;;;3.38;;
59161;SDS011;44942;48.936;8.260;2024-03-08T07:55:49;5.32;;;2.90;;
59161;SDS011;44942;48.936;8.260;2024-03-08T08:00:50;4.13;;;2.83;;
59161;SDS011;44942;48.936;8.260;2024-03-08T08:05:51;4.17;;;3.40;;
59161;SDS011;44942;48.936;8.260;2024-03-08T08:10:51;3.65;;;3.22;;
59161;SDS011;44942;48.936;8.260;2024-03-08T08:15:52;3.40;;;3.10;;
59161;SDS011;44942;48.936;8.260;2024-03-08T08:20:52;4.17;;;3.30;;
59161;SDS011;44942;48.936;8.260;2024-03-08T08:25:53;3.42;;;3.10;;
59161;SDS011;44942;48.936;8.260;2024-03-08T08:30:57;3.70;;;3.30;;
59161;SDS011;44942;48.936;8.260;2024-03-08T08:35:59;3.40;;;3.10;;
59161;SDS011;44942;48.936;8.260;2024-03-08T08:41:00;4.77;;;3.17;;
59161;SDS011;44942;48.936;8.260;2024-03-08T08:46:02;3.47;;;3.17;;
59161;SDS011;44942;48.936;8.260;2024-03-08T08:51:04;3.45;;;3.15;;
59161;SDS011;44942;48.936;8.260;2024-03-08T08:56:06;4.28;;;2.95;;
59161;SDS011;44942;48.936;8.260;2024-03-08T09:01:08;3.65;;;3.20;;
59161;SDS011;44942;48.936;8.260;2024-03-08T09:06:10;4.05;;;3.35;;
59161;SDS011;44942;48.936;8.260;2024-03-08T09:11:10;3.53;;;3.10;;
59161;SDS011;44942;48.936;8.260;2024-03-08T09:16:11;3.43;;;3.07;;
59161;SDS011;44942;48.936;8.260;2024-03-08T09:21:11;3.43;;;3.13;;
59161;SDS011;44942;48.936;8.260;2024-03-08T09:26:13;3.35;;;3.05;;
59161;SDS011;44942;48.936;8.260;2024-03-08T09:31:15;4.03;;;3.28;;
59161;SDS011;44942;48.936;8.260;2024-03-08T09:36:15;3.73;;;3.10;;
59161;SDS011;44942;48.936;8.260;2024-03-08T09:41:16;3.63;;;3.30;;
59161;SDS011;44942;48.936;8.260;2024-03-08T09:46:18;3.95;;;3.20;;
59161;SDS011;44942;48.936;8.260;2024-03-08T09:51:23;3.53;;;3.22;;
59161;SDS011;44942;48.936;8.260;2024-03-08T09:56:28;2.85;;;2.65;;
59161;SDS011;44942;48.936;8.260;2024-03-08T10:01:29;4.03;;;3.35;;
59161;SDS011;44942;48.936;8.260;2024-03-08T10:06:29;4.43;;;3.00;;
59161;SDS011;44942;48.936;8.260;2024-03-08T10:11:31;3.95;;;3.35;;
59161;SDS011;44942;48.936;8.260;2024-03-08T10:16:31;3.20;;;2.90;;
59161;SDS011;44942;48.936;8.260;2024-03-08T10:21:32;5.10;;;3.20;;
59161;SDS011;44942;48.936;8.260;2024-03-08T10:26:33;3.60;;;3.30;;
59161;SDS011;44942;48.936;8.260;2024-03-08T10:31:34;3.30;;;3.00;;
59161;SDS011;44942;48.936;8.260;2024-03-08T10:36:35;3.60;;;3.00;;
59161;SDS011;44942;48.936;8.260;2024-03-08T10:41:37;3.90;;;2.88;;
59161;SDS011;44942;48.936;8.260;2024-03-08T10:52:03;3.40;;;3.10;;
59161;SDS011;44942;48.936;8.260;2024-03-08T10:57:05;3.50;;;2.95;;
59161;SDS011;44942;48.936;8.260;2024-03-08T11:02:11;3.50;;;3.03;;
59161;SDS011;44942;48.936;8.260;2024-03-08T11:07:12;3.17;;;2.88;;
59161;SDS011;44942;48.936;8.260;2024-03-08T11:12:27;3.35;;;3.05;;
59161;SDS011;44942;48.936;8.260;2024-03-08T11:22:33;3.28;;;2.88;;
59161;SDS011;44942;48.936;8.260;2024-03-08T11:27:34;3.20;;;2.90;;
59161;SDS011;44942;48.936;8.260;2024-03-08T11:32:36;3.15;;;2.85;;
59161;SDS011;44942;48.936;8.260;2024-03-08T11:37:37;3.78;;;3.10;;
59161;SDS011;44942;48.936;8.260;2024-03-08T11:42:38;4.73;;;3.00;;
59161;SDS011;44942;48.936;8.260;2024-03-08T11:47:43;3.20;;;2.90;;
59161;SDS011;44942;48.936;8.260;2024-03-08T11:52:46;2.80;;;2.60;;
59161;SDS011;44942;48.936;8.260;2024-03-08T11:57:46;3.45;;;3.15;;
59161;SDS011;44942;48.936;8.260;2024-03-08T12:08:01;3.35;;;2.90;;
59161;SDS011;44942;48.936;8.260;2024-03-08T12:13:03;3.05;;;2.78;;
59161;SDS011;44942;48.936;8.260;2024-03-08T12:18:12;3.30;;;3.00;;
59161;SDS011;44942;48.936;8.260;2024-03-08T12:23:13;2.67;;;2.40;;
59161;SDS011;44942;48.936;8.260;2024-03-08T12:28:15;3.13;;;2.88;;
59161;SDS011;44942;48.936;8.260;2024-03-08T12:33:18;3.45;;;2.60;;
59161;SDS011;44942;48.936;8.260;2024-03-08T12:38:19;3.00;;;2.70;;
59161;SDS011;44942;48.936;8.260;2024-03-08T12:43:24;3.28;;;2.97;;
59161;SDS011;44942;48.936;8.260;2024-03-08T12:48:25;3.08;;;2.78;;
59161;SDS011;44942;48.936;8.260;2024-03-08T12:53:26;3.40;;;2.90;;
59161;SDS011;44942;48.936;8.260;2024-03-08T12:58:28;3.63;;;2.80;;
59161;SDS011;44942;48.936;8.260;2024-03-08T13:03:29;3.13;;;2.83;;
59161;SDS011;44942;48.936;8.260;2024-03-08T13:08:30;3.10;;;2.83;;
59161;SDS011;44942;48.936;8.260;2024-03-08T13:13:31;3.03;;;2.80;;
59161;SDS011;44942;48.936;8.260;2024-03-08T13:18:35;2.92;;;2.72;;
59161;SDS011;44942;48.936;8.260;2024-03-08T13:23:37;3.15;;;2.83;;
59161;SDS011;44942;48.936;8.260;2024-03-08T13:28:41;2.63;;;2.42;;
59161;SDS011;44942;48.936;8.260;2024-03-08T13:33:42;2.97;;;2.67;;
59161;SDS011;44942;48.936;8.260;2024-03-08T13:38:47;2.80;;;2.60;;
59161;SDS011;44942;48.936;8.260;2024-03-08T13:43:48;4.03;;;2.65;;
59161;SDS011;44942;48.936;8.260;2024-03-08T13:48:53;3.22;;;2.92;;
59161;SDS011;44942;48.936;8.260;2024-03-08T13:53:54;2.92;;;2.67;;
59161;SDS011;44942;48.936;8.260;2024-03-08T13:58:55;3.07;;;2.77;;
59161;SDS011;44942;48.936;8.260;2024-03-08T14:03:57;3.60;;;3.00;;
59161;SDS011;44942;48.936;8.260;2024-03-08T14:08:57;3.00;;;2.70;;
59161;SDS011;44942;48.936;8.260;2024-03-08T14:13:58;2.67;;;2.45;;
59161;SDS011;44942;48.936;8.260;2024-03-08T14:18:59;3.20;;;2.90;;
59161;SDS011;44942;48.936;8.260;2024-03-08T14:24:05;3.20;;;2.55;;
59161;SDS011;44942;48.936;8.260;2024-03-08T14:29:06;4.10;;;2.70;;
59161;SDS011;44942;48.936;8.260;2024-03-08T14:34:07;2.97;;;2.78;;
59161;SDS011;44942;48.936;8.260;2024-03-08T14:39:07;3.57;;;2.67;;
59161;SDS011;44942;48.936;8.260;2024-03-08T14:44:08;2.90;;;2.70;;
59161;SDS011;44942;48.936;8.260;2024-03-08T14:49:09;2.80;;;2.60;;
59161;SDS011;44942;48.936;8.260;2024-03-08T14:54:09;3.20;;;2.90;;
59161;SDS011;44942;48.936;8.260;2024-03-08T14:59:10;4.53;;;2.85;;
59161;SDS011;44942;48.936;8.260;2024-03-08T15:04:11;3.00;;;2.63;;
59161;SDS011;44942;48.936;8.260;2024-03-08T15:09:11;2.87;;;2.63;;
59161;SDS011;44942;48.936;8.260;2024-03-08T15:14:17;3.08;;;2.80;;
59161;SDS011;44942;48.936;8.260;2024-03-08T15:19:19;3.40;;;3.00;;
59161;SDS011;44942;48.936;8.260;2024-03-08T15:24:20;5.60;;;2.88;;
59161;SDS011;44942;48.936;8.260;2024-03-08T15:29:22;3.00;;;2.80;;
59161;SDS011;44942;48.936;8.260;2024-03-08T15:34:26;3.10;;;2.80;;
59161;SDS011;44942;48.936;8.260;2024-03-08T15:39:26;3.30;;;3.00;;
59161;SDS011;44942;48.936;8.260;2024-03-08T15:44:27;4.25;;;2.90;;
59161;SDS011;44942;48.936;8.260;2024-03-08T15:49:28;5.07;;;3.13;;
59161;SDS011;44942;48.936;8.260;2024-03-08T15:54:29;7.57;;;3.05;;
59161;SDS011;44942;48.936;8.260;2024-03-08T15:59:29;4.80;;;3.37;;
59161;SDS011;44942;48.936;8.260;2024-03-08T16:04:33;4.47;;;3.17;;
59161;SDS011;44942;48.936;8.260;2024-03-08T16:09:34;4.03;;;3.13;;
59161;SDS011;44942;48.936;8.260;2024-03-08T16:14:37;4.90;;;3.35;;
59161;SDS011;44942;48.936;8.260;2024-03-08T16:19:38;7.80;;;3.20;;
59161;SDS011;44942;48.936;8.260;2024-03-08T16:24:42;4.82;;;3.08;;
59161;SDS011;44942;48.936;8.260;2024-03-08T16:29:43;3.83;;;2.90;;
59161;SDS011;44942;48.936;8.260;2024-03-08T16:34:47;3.67;;;3.08;;
59161;SDS011;44942;48.936;8.260;2024-03-08T16:39:47;5.53;;;3.60;;
59161;SDS011;44942;48.936;8.260;2024-03-08T16:44:48;3.43;;;2.90;;
59161;SDS011;44942;48.936;8.260;2024-03-08T16:49:49;3.40;;;3.10;;
59161;SDS011;44942;48.936;8.260;2024-03-08T16:59:51;4.87;;;3.10;;
59161;SDS011;44942;48.936;8.260;2024-03-08T17:04:52;6.57;;;5.93;;
59161;SDS011;44942;48.936;8.260;2024-03-08T17:09:52;7.68;;;6.75;;
59161;SDS011;44942;48.936;8.260;2024-03-08T17:14:53;6.30;;;5.70;;
59161;SDS011;44942;48.936;8.260;2024-03-08T17:19:53;8.17;;;5.57;;
59161;SDS011;44942;48.936;8.260;2024-03-08T17:24:55;5.18;;;4.60;;
59161;SDS011;44942;48.936;8.260;2024-03-08T17:29:55;5.20;;;4.50;;
59161;SDS011;44942;48.936;8.260;2024-03-08T17:34:56;4.43;;;4.03;;
59161;SDS011;44942;48.936;8.260;2024-03-08T17:39:56;4.03;;;3.70;;
59161;SDS011;44942;48.936;8.260;2024-03-08T17:44:58;5.53;;;4.07;;
59161;SDS011;44942;48.936;8.260;2024-03-08T17:50:00;4.55;;;4.15;;
59161;SDS011;44942;48.936;8.260;2024-03-08T17:55:01;4.07;;;3.57;;
59161;SDS011;44942;48.936;8.260;2024-03-08T18:00:04;4.85;;;3.72;;
59161;SDS011;44942;48.936;8.260;2024-03-08T18:05:17;4.07;;;3.60;;
59161;SDS011;44942;48.936;8.260;2024-03-08T18:10:30;3.97;;;3.58;;
59161;SDS011;44942;48.936;8.260;2024-03-08T18:15:33;4.38;;;3.63;;
59161;SDS011;44942;48.936;8.260;2024-03-08T18:20:34;4.13;;;3.50;;
59161;SDS011;44942;48.936;8.260;2024-03-08T18:25:43;4.25;;;3.85;;
59161;SDS011;44942;48.936;8.260;2024-03-08T18:30:44;5.00;;;3.40;;
59161;SDS011;44942;48.936;8.260;2024-03-08T18:35:48;3.90;;;3.50;;
59161;SDS011;44942;48.936;8.260;2024-03-08T18:40:49;5.00;;;3.65;;
59161;SDS011;44942;48.936;8.260;2024-03-08T18:45:49;5.47;;;3.93;;
59161;SDS011;44942;48.936;8.260;2024-03-08T18:50:50;5.87;;;4.27;;
59161;SDS011;44942;48.936;8.260;2024-03-08T18:55:50;10.95;;;5.20;;
59161;SDS011;44942;48.936;8.260;2024-03-08T19:00:51;9.40;;;5.15;;
59161;SDS011;44942;48.936;8.260;2024-03-08T19:05:52;16.43;;;5.43;;
59161;SDS011;44942;48.936;8.260;2024-03-08T19:10:54;10.27;;;4.60;;
59161;SDS011;44942;48.936;8.260;2024-03-08T19:15:57;11.80;;;4.90;;
59161;SDS011;44942;48.936;8.260;2024-03-08T19:20:57;8.82;;;4.88;;
59161;SDS011;44942;48.936;8.260;2024-03-08T19:25:58;7.30;;;4.63;;
59161;SDS011;44942;48.936;8.260;2024-03-08T19:30:59;9.70;;;5.15;;
59161;SDS011;44942;48.936;8.260;2024-03-08T19:36:00;7.43;;;4.93;;
59161;SDS011;44942;48.936;8.260;2024-03-08T19:41:00;8.50;;;5.30;;
59161;SDS011;44942;48.936;8.260;2024-03-08T19:46:02;9.27;;;4.80;;
59161;SDS011;44942;48.936;8.260;2024-03-08T19:51:03;7.68;;;5.07;;
59161;SDS011;44942;48.936;8.260;2024-03-08T19:56:05;10.52;;;4.68;;
59161;SDS011;44942;48.936;8.260;2024-03-08T20:01:05;6.07;;;4.13;;
59161;SDS011;44942;48.936;8.260;2024-03-08T20:06:09;6.88;;;4.40;;
59161;SDS011;44942;48.936;8.260;2024-03-08T20:11:11;8.95;;;4.43;;
59161;SDS011;44942;48.936;8.260;2024-03-08T20:16:11;6.90;;;4.28;;
59161;SDS011;44942;48.936;8.260;2024-03-08T20:21:13;7.30;;;4.28;;
59161;SDS011;44942;48.936;8.260;2024-03-08T20:26:13;7.90;;;3.77;;
59161;SDS011;44942;48.936;8.260;2024-03-08T20:31:16;6.72;;;4.30;;
59161;SDS011;44942;48.936;8.260;2024-03-08T20:36:17;7.20;;;4.27;;
59161;SDS011;44942;48.936;8.260;2024-03-08T20:41:20;6.10;;;3.70;;
59161;SDS011;44942;48.936;8.260;2024-03-08T20:46:21;5.95;;;3.75;;
59161;SDS011;44942;48.936;8.260;2024-03-08T20:51:22;6.27;;;4.20;;
59161;SDS011;44942;48.936;8.260;2024-03-08T20:56:22;7.23;;;4.13;;
59161;SDS011;44942;48.936;8.260;2024-03-08T21:01:25;5.22;;;4.05;;
59161;SDS011;44942;48.936;8.260;2024-03-08T21:06:30;5.47;;;4.00;;
59161;SDS011;44942;48.936;8.260;2024-03-08T21:11:31;6.22;;;3.92;;
59161;SDS011;44942;48.936;8.260;2024-03-08T21:16:33;5.55;;;4.00;;
59161;SDS011;44942;48.936;8.260;2024-03-08T21:21:34;5.47;;;3.85;;
59161;SDS011;44942;48.936;8.260;2024-03-08T21:26:34;5.17;;;3.93;;
59161;SDS011;44942;48.936;8.260;2024-03-08T21:31:36;3.92;;;3.53;;
59161;SDS011;44942;48.936;8.260;2024-03-08T21:36:37;5.53;;;4.03;;
59161;SDS011;44942;48.936;8.260;2024-03-08T21:41:39;5.10;;;3.70;;
59161;SDS011;44942;48.936;8.260;2024-03-08T21:46:40;7.15;;;6.22;;
59161;SDS011;44942;48.936;8.260;2024-03-08T21:51:44;6.95;;;6.20;;
59161;SDS011;44942;48.936;8.260;2024-03-08T21:56:46;6.30;;;5.30;;
59161;SDS011;44942;48.936;8.260;2024-03-08T22:01:48;5.47;;;4.78;;
59161;SDS011;44942;48.936;8.260;2024-03-08T22:06:52;6.65;;;4.90;;
59161;SDS011;44942;48.936;8.260;2024-03-08T22:11:56;5.35;;;4.53;;
59161;SDS011;44942;48.936;8.260;2024-03-08T22:21:57;4.67;;;4.23;;
59161;SDS011;44942;48.936;8.260;2024-03-08T22:26:59;4.63;;;4.00;;
59161;SDS011;44942;48.936;8.260;2024-03-08T22:37:01;5.93;;;4.13;;
59161;SDS011;44942;48.936;8.260;2024-03-08T22:42:04;4.63;;;4.03;;
59161;SDS011;44942;48.936;8.260;2024-03-08T22:47:05;5.20;;;3.97;;
59161;SDS011;44942;48.936;8.260;2024-03-08T22:52:07;4.10;;;3.63;;
59161;SDS011;44942;48.936;8.260;2024-03-08T22:57:07;4.43;;;3.87;;
59161;SDS011;44942;48.936;8.260;2024-03-08T23:02:09;4.60;;;3.63;;
59161;SDS011;44942;48.936;8.260;2024-03-08T23:07:10;5.07;;;3.95;;
59161;SDS011;44942;48.936;8.260;2024-03-08T23:12:11;4.87;;;3.90;;
59161;SDS011;44942;48.936;8.260;2024-03-08T23:17:11;4.27;;;3.57;;
59161;SDS011;44942;48.936;8.260;2024-03-08T23:22:13;4.55;;;3.63;;
59161;SDS011;44942;48.936;8.260;2024-03-08T23:27:14;4.65;;;3.60;;
59161;SDS011;44942;48.936;8.260;2024-03-08T23:32:15;4.40;;;3.17;;
59161;SDS011;44942;48.936;8.260;2024-03-08T23:42:17;3.60;;;3.30;;
59161;SDS011;44942;48.936;8.260;2024-03-08T23:47:17;6.37;;;5.77;;
59161;SDS011;44942;48.936;8.260;2024-03-08T23:52:18;6.15;;;5.20;;
59161;SDS011;44942;48.936;8.260;2024-03-08T23:57:21;5.57;;;5.05;;
